OKEO2: Sand Creek near Okesa

Data processed at Fri Jan 20 23:17:13 2017 Central Standard Time


All information presented herein is the property of the government of the United States of America and may be revised or deleted at any time without prior notice.
Dissemination of this information without the expressed written consent of the Public Affairs Office, Tulsa District U.S. Army Corps of Engineers is strictly prohibited.
These data are gathered electronically and, as presented, have not undergone any form of quality control. These data are not guaranteed to be valid or correct.
Go to home page.
Go to station list.
Go to station map.

Downstream station:

Previous Day
Next Day
Current Day

Display graphics.
Display DCP transmissions.


    
    SHEF ID:       OKEO2     Sand Creek near Okesa
    STATION TYPE:  STREAM GAGE
    
                   PRECIP     STAGE  RIV-FLOW  BAT-LOAD
                   INCHES      FEET       CFS     VOLTS
                     GOES      GOES      GOES      GOES
       (Cen)
    01/20 01:00      0.00      7.51       193     12.57
    01/20 02:00      0.00      7.51       193     12.57
    01/20 03:00      0.00      7.51       193     12.57
    01/20 04:00      0.00      7.49       189     12.57
    01/20 05:00      0.00      7.50       191     12.57
    01/20 06:00      0.00      7.50       191     12.57
    01/20 07:00      0.00      7.49       189     12.57
    01/20 08:00      0.00      7.50       191     12.57
    01/20 09:00      0.00      7.51       193     12.49
    01/20 10:00      0.00      7.51       193     12.57
    01/20 11:00      0.00      7.48       187     12.73
    01/20 12:00      0.00      7.48       187     13.05
    01/20 13:00      0.00      7.48       187     13.44
    01/20 14:00      0.00      7.48       187     13.68
    01/20 15:00      0.00      7.47       186     13.60
    01/20 16:00      0.00      7.46       184     13.05
    01/20 17:00      0.00      7.48       187     12.97
    01/20 18:00      0.00      7.48       187      ----
    01/20 19:00      0.00      7.46       184     12.89
    01/20 20:00      0.00      7.45       182     12.89
    01/20 21:00      0.00      7.47       186     12.81
    01/20 22:00      0.00      7.47       186     12.81
    01/20 23:00      0.00      7.47       186     12.81
    01/21 00:00      ----      ----      ----      ----